createdAt,value
2022-09-21T00:00:38.791Z,90.45
2022-09-21T00:03:05.648Z,90.53
2022-09-21T00:05:33.249Z,90.50
2022-09-21T00:08:01.140Z,90.69
2022-09-21T00:10:27.563Z,90.74
2022-09-21T00:12:53.982Z,90.81
2022-09-21T00:15:21.177Z,90.80
2022-09-21T00:17:48.490Z,90.80
2022-09-21T00:20:16.234Z,90.72
2022-09-21T00:22:42.863Z,90.44
2022-09-21T00:25:09.847Z,90.53
2022-09-21T00:27:36.590Z,90.66
2022-09-21T00:30:04.192Z,90.57
2022-09-21T00:32:31.982Z,90.25
2022-09-21T00:34:58.796Z,90.33
2022-09-21T00:37:25.310Z,90.74
2022-09-21T00:39:52.107Z,90.60
2022-09-21T00:42:24.554Z,90.84
2022-09-21T00:44:50.949Z,91.01
2022-09-21T00:47:21.971Z,90.97
2022-09-21T00:49:54.353Z,91.02
2022-09-21T00:52:24.204Z,91.01
2022-09-21T00:54:58.307Z,91.19
2022-09-21T00:57:27.383Z,91.29
2022-09-21T00:59:57.247Z,91.30
2022-09-21T01:02:24.505Z,91.38
2022-09-21T01:04:55.975Z,91.28
2022-09-21T01:07:28.337Z,91.34
2022-09-21T01:09:58.663Z,91.36
2022-09-21T01:12:37.331Z,91.51
2022-09-21T01:15:41.750Z,91.65
2022-09-21T01:18:13.877Z,91.84
2022-09-21T01:21:02.187Z,91.78
2022-09-21T01:23:54.860Z,91.68
2022-09-21T01:26:37.851Z,91.55
2022-09-21T01:29:19.975Z,91.49
2022-09-21T01:32:05.326Z,91.45
2022-09-21T01:34:45.587Z,91.64
2022-09-21T01:37:17.782Z,91.68
2022-09-21T01:39:48.707Z,91.80
2022-09-21T01:42:17.557Z,91.74
2022-09-21T01:44:46.145Z,91.74
2022-09-21T01:47:14.294Z,91.60
2022-09-21T01:49:47.264Z,91.75
2022-09-21T01:52:19.797Z,92.03
2022-09-21T01:54:52.449Z,91.81
2022-09-21T01:57:34.806Z,91.86
2022-09-21T02:00:02.186Z,91.72
2022-09-21T02:02:38.588Z,91.65
2022-09-21T02:05:06.659Z,91.80
2022-09-21T02:07:34.484Z,91.72
2022-09-21T02:10:03.052Z,91.86
2022-09-21T02:12:32.145Z,91.61
2022-09-21T02:14:59.719Z,91.71
2022-09-21T02:17:48.923Z,91.69
2022-09-21T02:20:32.274Z,91.57
2022-09-21T02:23:25.049Z,91.65
2022-09-21T02:26:09.300Z,91.58
2022-09-21T02:28:44.548Z,91.71
2022-09-21T02:31:17.809Z,91.60
2022-09-21T02:34:33.998Z,91.53
2022-09-21T02:37:11.092Z,91.49
2022-09-21T02:39:56.047Z,91.63
2022-09-21T02:42:28.134Z,91.68
2022-09-21T02:45:03.315Z,91.75
2022-09-21T02:47:52.149Z,91.65
2022-09-21T02:50:55.025Z,91.45
2022-09-21T02:53:26.658Z,91.44
2022-09-21T02:55:56.677Z,91.74
2022-09-21T02:58:26.832Z,91.51
2022-09-21T03:00:56.502Z,91.40
2022-09-21T03:03:24.810Z,91.55
2022-09-21T03:05:53.787Z,91.47
2022-09-21T03:08:20.387Z,91.31
2022-09-21T03:10:50.708Z,91.06
2022-09-21T03:13:18.360Z,91.09
2022-09-21T03:15:45.825Z,91.35
2022-09-21T03:18:12.745Z,91.30
2022-09-21T03:20:40.977Z,91.51
2022-09-21T03:23:07.799Z,91.21
2022-09-21T03:25:34.378Z,91.44
2022-09-21T03:28:01.503Z,91.20
2022-09-21T03:30:29.234Z,91.21
2022-09-21T03:32:56.177Z,90.84
2022-09-21T03:35:26.566Z,91.58
2022-09-21T03:37:55.086Z,91.37
2022-09-21T03:40:22.144Z,91.77
2022-09-21T03:42:48.644Z,91.41
2022-09-21T03:45:15.056Z,91.84
2022-09-21T03:47:42.141Z,91.72
2022-09-21T03:50:10.205Z,91.78
2022-09-21T03:52:38.467Z,91.58
2022-09-21T03:55:08.878Z,91.17
2022-09-21T03:57:38.849Z,91.25
2022-09-21T04:00:08.935Z,91.45
2022-09-21T04:02:36.506Z,91.40
2022-09-21T04:05:03.406Z,91.53
2022-09-21T04:07:36.879Z,91.56
2022-09-21T04:10:06.063Z,91.42
2022-09-21T04:12:34.567Z,91.23
2022-09-21T04:15:01.669Z,91.12
2022-09-21T04:17:28.678Z,90.96
2022-09-21T04:19:55.141Z,90.90
2022-09-21T04:22:21.623Z,90.90
2022-09-21T04:24:48.085Z,91.10
2022-09-21T04:27:14.476Z,91.17
2022-09-21T04:29:41.227Z,91.24
2022-09-21T04:32:07.643Z,91.39
2022-09-21T04:34:34.403Z,91.30
2022-09-21T04:37:00.837Z,91.17
2022-09-21T04:39:27.184Z,91.12
2022-09-21T04:41:53.527Z,91.23
2022-09-21T04:44:20.400Z,91.33
2022-09-21T04:46:47.186Z,91.39
2022-09-21T04:49:13.800Z,91.36
2022-09-21T04:51:40.207Z,91.33
2022-09-21T04:54:06.686Z,91.48
2022-09-21T04:56:33.788Z,91.57
2022-09-21T04:59:00.225Z,91.42
2022-09-21T05:01:27.447Z,91.07
2022-09-21T05:03:54.018Z,91.44
2022-09-21T05:06:20.482Z,91.54
2022-09-21T05:09:05.297Z,91.69
2022-09-21T05:11:32.062Z,91.98
2022-09-21T05:13:58.557Z,91.91
2022-09-21T05:16:24.950Z,91.84
2022-09-21T05:18:54.124Z,91.78
2022-09-21T05:21:21.487Z,91.82
2022-09-21T05:23:48.035Z,91.74
2022-09-21T05:26:14.417Z,91.57
2022-09-21T05:28:41.980Z,91.93
2022-09-21T05:31:27.224Z,92.07
2022-09-21T05:34:11.021Z,91.69
2022-09-21T05:36:48.301Z,91.85
2022-09-21T05:39:15.124Z,91.78
2022-09-21T05:41:41.813Z,91.85
2022-09-21T05:44:13.117Z,91.84
2022-09-21T05:46:42.686Z,91.90
2022-09-21T05:49:24.322Z,91.53
2022-09-21T05:52:24.730Z,91.69
2022-09-21T05:55:02.461Z,91.49
2022-09-21T05:57:45.807Z,91.25
2022-09-21T06:00:22.423Z,91.11
2022-09-21T06:03:25.502Z,91.15
2022-09-21T06:05:52.225Z,91.33
2022-09-21T06:08:18.775Z,91.25
2022-09-21T06:10:45.784Z,91.02
2022-09-21T06:13:12.295Z,90.94
2022-09-21T06:15:39.007Z,90.70
2022-09-21T06:18:12.139Z,90.79
2022-09-21T06:20:40.890Z,90.99
2022-09-21T06:23:09.622Z,90.77
2022-09-21T06:25:36.428Z,90.56
2022-09-21T06:28:13.080Z,90.19
2022-09-21T06:32:36.087Z,90.11
2022-09-21T06:35:02.537Z,90.17
2022-09-21T06:37:29.108Z,90.12
2022-09-21T06:39:55.444Z,90.29
2022-09-21T06:42:22.036Z,90.10
2022-09-21T06:44:48.608Z,90.03
2022-09-21T06:47:15.113Z,90.14
2022-09-21T06:49:42.645Z,89.90
2022-09-21T06:52:09.233Z,89.63
2022-09-21T06:54:36.912Z,89.55
2022-09-21T06:57:03.529Z,89.40
2022-09-21T06:59:30.021Z,89.23
2022-09-21T07:01:58.422Z,89.28
2022-09-21T07:04:25.432Z,88.44
2022-09-21T07:06:51.991Z,84.85
2022-09-21T07:12:07.055Z,77.62
2022-09-21T07:14:33.821Z,74.90
2022-09-21T07:17:00.310Z,77.82
2022-09-21T07:19:26.828Z,78.69
2022-09-21T07:21:54.271Z,75.25
2022-09-21T07:24:20.635Z,73.20
2022-09-21T07:26:47.215Z,71.62
2022-09-21T07:29:13.617Z,72.62
2022-09-21T07:31:43.823Z,72.29
2022-09-21T07:34:11.158Z,67.25
2022-09-21T07:36:37.541Z,69.11
2022-09-21T07:39:04.144Z,68.40
2022-09-21T07:41:30.892Z,69.39
2022-09-21T07:43:57.240Z,71.97
2022-09-21T07:46:23.736Z,72.52
2022-09-21T07:48:53.869Z,68.92
2022-09-21T07:51:20.281Z,73.20
2022-09-21T07:53:46.995Z,73.90
2022-09-21T07:56:16.579Z,72.07
2022-09-21T07:59:02.597Z,72.06
2022-09-21T08:01:29.509Z,70.53
2022-09-21T08:03:57.517Z,72.76
2022-09-21T08:06:26.886Z,68.77
2022-09-21T08:08:57.450Z,66.96
2022-09-21T08:11:25.860Z,64.75
2022-09-21T08:13:54.112Z,59.57
2022-09-21T08:16:21.084Z,65.49
2022-09-21T08:18:48.024Z,66.49
2022-09-21T08:21:14.468Z,67.74
2022-09-21T08:23:42.267Z,64.44
2022-09-21T08:26:11.826Z,60.69
2022-09-21T08:28:38.670Z,59.34
2022-09-21T08:31:10.487Z,59.27
2022-09-21T08:33:37.016Z,59.10
2022-09-21T08:36:04.289Z,60.09
2022-09-21T08:38:35.536Z,57.66
2022-09-21T08:41:11.381Z,58.45
2022-09-21T08:43:44.062Z,61.58
2022-09-21T08:46:18.421Z,62.06
2022-09-21T08:49:07.097Z,58.67
2022-09-21T08:51:36.893Z,58.34
2022-09-21T08:54:29.244Z,57.46
2022-09-21T08:57:11.760Z,60.08
2022-09-21T08:59:42.792Z,54.53
2022-09-21T09:02:09.230Z,58.43
2022-09-21T09:04:43.964Z,61.22
2022-09-21T09:07:16.315Z,61.08
2022-09-21T09:10:01.450Z,54.94
2022-09-21T09:12:53.918Z,58.78
2022-09-21T09:15:42.305Z,53.42
2022-09-21T09:18:31.870Z,53.55
2022-09-21T09:21:05.468Z,56.18
2022-09-21T09:23:40.076Z,56.98
2022-09-21T09:26:10.929Z,54.21
2022-09-21T09:29:41.936Z,50.98
2022-09-21T09:32:15.446Z,55.09
2022-09-21T09:34:49.084Z,53.49
2022-09-21T09:37:20.605Z,49.64
2022-09-21T09:39:57.632Z,49.23
2022-09-21T09:42:29.734Z,48.66
2022-09-21T09:45:02.385Z,46.83
2022-09-21T09:47:46.213Z,48.12
2022-09-21T09:50:28.993Z,52.54
2022-09-21T09:53:04.908Z,49.51
2022-09-21T09:55:43.767Z,49.65
2022-09-21T09:58:19.396Z,51.42
2022-09-21T10:00:47.785Z,49.99
2022-09-21T10:03:18.245Z,54.67
2022-09-21T10:05:45.097Z,53.62
2022-09-21T10:08:44.342Z,51.15
2022-09-21T10:11:15.829Z,48.74
2022-09-21T10:13:45.653Z,50.67
2022-09-21T10:16:18.169Z,45.45
2022-09-21T10:18:49.266Z,48.53
2022-09-21T10:21:25.107Z,47.82
2022-09-21T10:24:02.316Z,44.29
2022-09-21T10:26:35.706Z,43.60
2022-09-21T10:29:39.979Z,43.15
2022-09-21T10:32:21.222Z,43.98
2022-09-21T10:35:07.696Z,45.82
2022-09-21T10:37:42.979Z,49.92
2022-09-21T10:40:21.680Z,47.98
2022-09-21T10:42:50.543Z,44.83
2022-09-21T10:45:18.271Z,42.24
2022-09-21T10:47:48.364Z,39.74
2022-09-21T10:50:26.934Z,38.26
2022-09-21T10:53:00.947Z,37.16
2022-09-21T10:55:31.969Z,36.36
2022-09-21T10:57:58.958Z,36.71
2022-09-21T11:00:25.830Z,37.01
2022-09-21T11:02:54.908Z,43.81
2022-09-21T11:05:29.608Z,43.92
2022-09-21T11:08:24.431Z,43.42
2022-09-21T11:11:08.724Z,41.65
2022-09-21T11:13:42.348Z,38.47
2022-09-21T11:16:37.127Z,38.37
2022-09-21T11:19:34.390Z,38.38
2022-09-21T11:22:05.361Z,37.18
2022-09-21T11:24:52.199Z,37.85
2022-09-21T11:27:25.473Z,37.46
2022-09-21T11:30:05.012Z,37.35
2022-09-21T11:32:50.132Z,36.31
2022-09-21T11:35:31.220Z,39.82
2022-09-21T11:38:09.863Z,37.09
2022-09-21T11:40:44.788Z,38.30
2022-09-21T11:43:27.856Z,37.30
2022-09-21T11:46:17.557Z,36.90
2022-09-21T11:49:02.072Z,36.94
2022-09-21T11:52:02.922Z,35.09
2022-09-21T11:54:57.177Z,35.30
2022-09-21T11:57:31.698Z,33.96
2022-09-21T12:00:18.894Z,33.05
2022-09-21T12:03:07.271Z,32.78
2022-09-21T12:05:46.659Z,31.73
2022-09-21T12:08:30.981Z,32.04
2022-09-21T12:11:24.749Z,33.70
2022-09-21T12:14:03.612Z,33.26
2022-09-21T12:16:54.740Z,33.88
2022-09-21T12:19:49.388Z,34.61
2022-09-21T12:22:22.745Z,35.19
2022-09-21T12:25:07.414Z,31.99
2022-09-21T12:27:54.654Z,31.43
2022-09-21T12:30:23.509Z,30.94
2022-09-21T12:33:14.984Z,29.48
2022-09-21T12:36:20.268Z,30.08
2022-09-21T12:39:03.373Z,27.93
2022-09-21T12:41:46.287Z,28.94
2022-09-21T12:44:35.953Z,29.33
2022-09-21T12:47:11.788Z,30.59
2022-09-21T12:49:48.225Z,31.53
2022-09-21T12:52:28.054Z,31.35
2022-09-21T12:55:32.217Z,30.96
2022-09-21T12:58:16.663Z,32.91
2022-09-21T13:01:11.280Z,33.89
2022-09-21T13:04:16.661Z,35.46
2022-09-21T13:07:04.335Z,38.86
2022-09-21T13:09:31.844Z,43.26
2022-09-21T13:12:14.388Z,43.86
2022-09-21T13:14:47.912Z,44.47
2022-09-21T13:17:32.952Z,44.80
2022-09-21T13:20:05.556Z,45.49
2022-09-21T13:22:35.360Z,45.93
2022-09-21T13:25:03.328Z,45.42
2022-09-21T13:28:14.950Z,45.95
2022-09-21T13:30:47.329Z,46.34
2022-09-21T13:33:16.831Z,46.02
2022-09-21T13:36:04.303Z,46.05
2022-09-21T13:38:40.116Z,46.44
2022-09-21T13:41:18.549Z,46.55
2022-09-21T13:43:46.291Z,45.78
2022-09-21T13:46:31.897Z,46.18
2022-09-21T13:49:02.168Z,45.90
2022-09-21T13:51:33.299Z,46.55
2022-09-21T13:54:02.659Z,46.32
2022-09-21T13:56:33.177Z,46.26
2022-09-21T13:59:00.023Z,46.00
2022-09-21T14:01:51.242Z,45.97
2022-09-21T14:15:49.540Z,37.80
2022-09-21T14:18:16.902Z,36.38
2022-09-21T14:21:08.418Z,35.45
2022-09-21T14:23:37.253Z,35.64
2022-09-21T14:26:36.280Z,35.25
2022-09-21T14:29:15.607Z,36.32
2022-09-21T14:31:42.368Z,35.77
2022-09-21T14:34:22.786Z,36.38
2022-09-21T14:36:54.210Z,38.35
2022-09-21T14:39:30.223Z,39.10
2022-09-21T14:42:03.643Z,40.46
2022-09-21T14:44:35.206Z,40.93
2022-09-21T15:07:47.062Z,34.70
2022-09-21T15:10:37.423Z,34.53
2022-09-21T15:13:26.005Z,34.86
2022-09-21T15:16:13.942Z,34.92
2022-09-21T15:18:41.717Z,34.63
2022-09-21T15:21:24.317Z,34.73
2022-09-21T15:23:52.304Z,34.21
2022-09-21T15:26:26.693Z,34.92
2022-09-21T15:29:09.334Z,37.11
2022-09-21T15:31:42.118Z,36.48
2022-09-21T15:34:10.939Z,35.87
2022-09-21T15:36:40.637Z,35.10
2022-09-21T15:39:20.434Z,35.72
2022-09-21T15:41:51.879Z,35.02
2022-09-21T15:44:22.933Z,35.25
2022-09-21T15:47:01.227Z,36.52
2022-09-21T15:49:29.737Z,38.05
2022-09-21T15:52:02.541Z,39.36
2022-09-21T15:54:35.210Z,40.36
2022-09-21T15:57:08.610Z,41.65
2022-09-21T15:59:35.660Z,41.85
2022-09-21T16:02:11.906Z,42.61
2022-09-21T16:04:49.131Z,42.89
2022-09-21T16:07:33.851Z,43.25
2022-09-21T16:10:01.516Z,43.70
2022-09-21T16:12:45.699Z,44.53
2022-09-21T16:15:30.214Z,43.89
2022-09-21T16:18:02.704Z,42.83
2022-09-21T16:20:42.574Z,41.07
2022-09-21T16:23:16.955Z,40.96
2022-09-21T16:25:43.905Z,40.21
2022-09-21T16:28:17.411Z,41.11
2022-09-21T16:30:46.016Z,40.24
2022-09-21T16:33:42.454Z,39.96
2022-09-21T16:36:32.441Z,39.65
2022-09-21T16:39:00.361Z,39.24
2022-09-21T16:41:35.022Z,40.60
2022-09-21T16:44:03.168Z,39.43
2022-09-21T16:46:32.273Z,40.57
2022-09-21T16:48:59.180Z,42.00
2022-09-21T16:51:28.143Z,42.06
2022-09-21T16:53:56.504Z,43.40
2022-09-21T16:56:22.959Z,43.53
2022-09-21T16:58:49.654Z,45.09
2022-09-21T17:01:21.373Z,45.66
2022-09-21T17:03:47.962Z,46.98
2022-09-21T17:06:19.803Z,47.96
2022-09-21T17:08:48.245Z,48.78
2022-09-21T17:11:22.196Z,49.41
2022-09-21T17:13:52.735Z,50.65
2022-09-21T17:16:20.074Z,51.13
2022-09-21T17:18:47.759Z,52.64
2022-09-21T17:21:15.367Z,53.21
2022-09-21T17:23:42.917Z,53.62
2022-09-21T17:26:17.734Z,54.87
2022-09-21T17:28:44.891Z,55.41
2022-09-21T17:31:13.898Z,55.48
2022-09-21T17:33:40.857Z,56.94
2022-09-21T17:36:13.449Z,57.34
2022-09-21T17:38:41.729Z,57.44
2022-09-21T17:41:19.658Z,58.16
2022-09-21T17:44:05.667Z,58.79
2022-09-21T17:46:46.259Z,59.85
2022-09-21T17:49:13.156Z,59.15
2022-09-21T17:51:58.372Z,59.65
2022-09-21T17:57:44.798Z,60.70
2022-09-21T18:00:20.638Z,60.62
2022-09-21T18:02:47.974Z,61.17
2022-09-21T18:05:22.764Z,61.95
2022-09-21T18:07:52.019Z,62.20
2022-09-21T18:10:27.493Z,62.73
2022-09-21T18:12:57.342Z,64.02
2022-09-21T18:15:42.418Z,64.98
2022-09-21T18:18:22.517Z,64.94
2022-09-21T18:21:03.611Z,65.62
2022-09-21T18:23:35.421Z,66.16
2022-09-21T18:26:02.173Z,66.38
2022-09-21T18:28:37.956Z,66.73
2022-09-21T18:31:14.855Z,67.13
2022-09-21T18:34:12.936Z,67.76
2022-09-21T18:36:52.968Z,68.06
2022-09-21T18:39:47.474Z,68.95
2022-09-21T18:42:42.824Z,69.82
2022-09-21T18:45:19.417Z,70.46
2022-09-21T18:48:13.157Z,71.43
2022-09-21T18:51:09.044Z,71.65
2022-09-21T18:53:49.766Z,71.89
2022-09-21T18:56:16.519Z,72.03
2022-09-21T18:58:43.143Z,72.32
2022-09-21T19:01:13.784Z,72.41
2022-09-21T19:03:45.094Z,72.13
2022-09-21T19:06:19.421Z,72.12
2022-09-21T19:09:02.537Z,72.40
2022-09-21T19:11:43.349Z,72.82
2022-09-21T19:15:00.854Z,72.96
2022-09-21T19:17:53.808Z,73.12
2022-09-21T19:20:29.799Z,73.96
2022-09-21T19:23:16.763Z,74.44
2022-09-21T19:25:49.786Z,74.87
2022-09-21T19:28:33.201Z,75.00
2022-09-21T19:31:07.742Z,75.33
2022-09-21T19:33:51.210Z,75.69
2022-09-21T19:36:18.950Z,75.86
2022-09-21T19:38:45.631Z,76.28
2022-09-21T19:41:34.958Z,76.75
2022-09-21T19:44:12.879Z,77.11
2022-09-21T19:47:03.362Z,77.24
2022-09-21T19:49:48.412Z,77.65
2022-09-21T19:52:19.451Z,78.02
2022-09-21T19:55:34.570Z,78.12
2022-09-21T19:58:19.899Z,78.32
2022-09-21T20:00:52.816Z,78.45
2022-09-21T20:03:42.402Z,78.62
2022-09-21T20:06:15.243Z,79.09
2022-09-21T20:08:46.580Z,79.21
2022-09-21T20:11:38.485Z,79.30
2022-09-21T20:14:50.912Z,79.34
2022-09-21T20:17:23.951Z,79.51
2022-09-21T20:19:59.642Z,79.62
2022-09-21T20:22:36.759Z,79.78
2022-09-21T20:25:12.925Z,79.75
2022-09-21T20:27:39.494Z,79.62
2022-09-21T20:30:09.896Z,79.84
2022-09-21T20:32:39.093Z,79.41
2022-09-21T20:35:14.876Z,79.78
2022-09-21T20:37:42.229Z,80.46
2022-09-21T20:40:09.637Z,80.78
2022-09-21T20:42:39.436Z,79.97
2022-09-21T20:45:07.461Z,79.88
2022-09-21T20:47:34.341Z,79.97
2022-09-21T20:50:00.843Z,79.89
2022-09-21T20:52:28.487Z,79.95
2022-09-21T20:54:55.038Z,80.45
2022-09-21T20:57:21.452Z,80.20
2022-09-21T20:59:48.200Z,79.84
2022-09-21T21:02:16.509Z,79.73
2022-09-21T21:04:43.021Z,80.12
2022-09-21T21:07:10.502Z,80.42
2022-09-21T21:09:37.291Z,80.66
2022-09-21T21:12:04.044Z,80.32
2022-09-21T21:14:30.412Z,80.87
2022-09-21T21:16:56.834Z,81.00
2022-09-21T21:19:23.346Z,81.10
2022-09-21T21:21:49.699Z,81.06
2022-09-21T21:24:35.059Z,81.14
2022-09-21T21:27:03.055Z,81.30
2022-09-21T21:29:30.336Z,81.45
2022-09-21T21:31:57.476Z,81.50
2022-09-21T21:34:24.238Z,82.23
2022-09-21T21:36:51.187Z,82.49
2022-09-21T21:39:17.566Z,82.32
2022-09-21T21:41:43.945Z,82.48
2022-09-21T21:44:11.499Z,82.48
2022-09-21T21:46:37.980Z,82.32
2022-09-21T21:49:04.865Z,82.18
2022-09-21T21:51:31.816Z,82.09
2022-09-21T21:53:58.358Z,83.17
2022-09-21T21:56:26.514Z,83.24
2022-09-21T21:58:54.160Z,83.12
2022-09-21T22:01:23.732Z,83.34
2022-09-21T22:03:55.251Z,83.32
2022-09-21T22:06:22.666Z,83.25
2022-09-21T22:08:50.567Z,83.21
2022-09-21T22:11:17.506Z,83.11
2022-09-21T22:13:45.508Z,83.45
2022-09-21T22:16:18.594Z,83.70
2022-09-21T22:18:46.182Z,84.12
2022-09-21T22:21:23.525Z,84.53
2022-09-21T22:23:57.361Z,84.51
2022-09-21T22:26:25.622Z,84.81
2022-09-21T22:28:56.329Z,84.73
2022-09-21T22:31:28.695Z,85.01
2022-09-21T22:33:58.430Z,84.41
2022-09-21T22:36:27.547Z,84.74
2022-09-21T22:38:54.428Z,84.53
2022-09-21T22:41:30.287Z,84.58
2022-09-21T22:43:58.417Z,84.41
2022-09-21T22:46:26.610Z,84.59
2022-09-21T22:48:53.133Z,84.40
2022-09-21T22:51:20.840Z,84.65
2022-09-21T22:53:48.677Z,84.77
2022-09-21T22:56:15.096Z,84.96
2022-09-21T22:58:46.419Z,84.97
2022-09-21T23:01:14.897Z,84.87
2022-09-21T23:03:41.893Z,85.07
2022-09-21T23:06:11.661Z,84.95
2022-09-21T23:08:38.907Z,84.95
2022-09-21T23:11:08.130Z,85.07
2022-09-21T23:13:34.511Z,85.24
2022-09-21T23:16:02.916Z,85.33
2022-09-21T23:18:30.060Z,85.40
2022-09-21T23:21:05.497Z,85.40
2022-09-21T23:23:32.956Z,85.14
2022-09-21T23:26:08.373Z,85.19
2022-09-21T23:28:36.045Z,85.27
2022-09-21T23:31:05.491Z,85.39
2022-09-21T23:33:37.875Z,85.34
2022-09-21T23:36:06.357Z,85.56
2022-09-21T23:38:33.675Z,85.71
2022-09-21T23:41:04.895Z,85.69
2022-09-21T23:43:31.936Z,85.24
2022-09-21T23:45:58.902Z,85.13
2022-09-21T23:48:27.120Z,85.50
2022-09-21T23:50:55.518Z,85.76
2022-09-21T23:53:22.899Z,85.82
2022-09-21T23:55:49.802Z,85.72
